Time;durP1;ratioP1;P1;durP2;ratioP2;P2;SDS_P1;SDS_P2;PMS_P1;PMS_P2;Temp;Humidity;BMP_temperature;BMP_pressure;BME280_temperature;BME280_humidity;BME280_pressure;Samples;Min_cycle;Max_cycle;Signal;HPM_P1;HPM_P2
2023/09/27 00:00:09;;;;;;;29.13;25.35;;;14.20;99.90;;;;;;5011284;28;20083;-81
2023/09/27 00:02:36;;;;;;;28.05;25.05;;;14.20;99.90;;;;;;5013418;28;20077;-81
2023/09/27 00:05:06;;;;;;;27.95;24.95;;;14.20;99.90;;;;;;5013896;28;20041;-81
2023/09/27 00:07:36;;;;;;;33.70;28.33;;;14.20;99.90;;;;;;4978844;28;20056;-81
2023/09/27 00:10:02;;;;;;;29.02;26.05;;;14.20;99.90;;;;;;5016113;28;20048;-80
2023/09/27 00:12:28;;;;;;;27.95;24.95;;;14.20;99.90;;;;;;5009732;28;20065;-81
2023/09/27 00:14:55;;;;;;;29.23;26.23;;;14.20;99.90;;;;;;4981624;28;20051;-81
2023/09/27 00:17:22;;;;;;;31.45;27.20;;;14.20;99.90;;;;;;5009090;28;20424;-80
2023/09/27 00:19:48;;;;;;;35.92;30.75;;;14.10;99.90;;;;;;5013081;28;20049;-81
2023/09/27 00:22:13;;;;;;;34.17;29.67;;;14.10;99.90;;;;;;4990333;28;20041;-80
2023/09/27 00:24:39;;;;;;;32.97;29.08;;;14.10;99.90;;;;;;4997117;28;20045;-81
2023/09/27 00:27:05;;;;;;;38.08;30.45;;;14.20;99.90;;;;;;5030108;28;20045;-81
2023/09/27 00:29:31;;;;;;;37.95;32.25;;;14.20;99.90;;;;;;5011306;28;20393;-80
2023/09/27 00:31:57;;;;;;;38.28;31.52;;;14.10;99.90;;;;;;4994659;28;20033;-80
2023/09/27 00:34:23;;;;;;;36.28;31.60;;;14.10;99.90;;;;;;4980209;28;20048;-81
2023/09/27 00:36:49;;;;;;;36.22;32.17;;;14.10;99.90;;;;;;4997464;28;20477;-81
2023/09/27 00:39:15;;;;;;;37.35;30.55;;;14.10;99.90;;;;;;5010650;28;20075;-80
2023/09/27 00:41:40;;;;;;;35.40;31.27;;;14.10;99.90;;;;;;5012966;28;20073;-81
2023/09/27 00:44:06;;;;;;;36.45;32.42;;;14.10;99.90;;;;;;5011312;28;20045;-81
2023/09/27 00:46:32;;;;;;;32.63;28.98;;;14.10;99.90;;;;;;4995860;28;20483;-81
2023/09/27 00:48:58;;;;;;;32.85;29.15;;;14.10;99.90;;;;;;4996462;28;20405;-81
2023/09/27 00:51:25;;;;;;;32.88;29.38;;;14.10;99.90;;;;;;4995447;28;20037;-81
2023/09/27 00:53:51;;;;;;;34.65;30.20;;;14.10;99.90;;;;;;4993565;28;20367;-81
2023/09/27 00:56:17;;;;;;;32.55;29.08;;;14.10;99.90;;;;;;5013094;28;20037;-81
2023/09/27 00:58:43;;;;;;;34.03;29.90;;;14.20;99.90;;;;;;4979857;28;20465;-80
2023/09/27 01:01:10;;;;;;;34.08;30.38;;;14.20;99.90;;;;;;4995277;28;20037;-80
2023/09/27 01:03:36;;;;;;;33.60;29.45;;;14.20;99.90;;;;;;5010827;28;20191;-80
2023/09/27 01:06:02;;;;;;;34.45;30.70;;;14.20;99.90;;;;;;4993412;28;20037;-81
2023/09/27 01:08:29;;;;;;;32.25;28.75;;;14.20;99.90;;;;;;5027393;28;20063;-81
2023/09/27 01:10:55;;;;;;;32.88;29.27;;;14.20;99.90;;;;;;4992417;28;20049;-80
2023/09/27 01:13:21;;;;;;;34.25;29.95;;;14.20;99.90;;;;;;4980302;28;20041;-80
2023/09/27 01:15:47;;;;;;;33.40;29.80;;;14.20;99.90;;;;;;4996577;28;20041;-80
2023/09/27 01:18:13;;;;;;;35.03;31.23;;;14.10;99.90;;;;;;5011926;28;20051;-79
2023/09/27 01:20:39;;;;;;;37.00;32.05;;;14.10;99.90;;;;;;4995933;28;20133;-80
2023/09/27 01:23:05;;;;;;;36.33;32.30;;;14.10;99.90;;;;;;5009645;28;20048;-80
2023/09/27 01:25:39;;;;;;;34.30;30.70;;;14.10;99.90;;;;;;5006289;28;20036;-80
2023/09/27 01:28:09;;;;;;;38.05;33.58;;;14.10;99.90;;;;;;5012492;28;20044;-80
2023/09/27 01:30:36;;;;;;;39.80;35.40;;;14.00;99.90;;;;;;5011824;28;20038;-80
2023/09/27 01:33:06;;;;;;;40.10;35.70;;;14.00;99.90;;;;;;5011569;28;20049;-80
2023/09/27 01:35:38;;;;;;;40.78;35.65;;;14.00;99.90;;;;;;5026504;28;20052;-80
2023/09/27 01:38:04;;;;;;;;;;;14.00;99.90;;;;;;5009270;28;20049;-80
2023/09/27 01:40:30;;;;;;;39.30;34.60;;;14.00;99.90;;;;;;5010256;28;19964;-80
2023/09/27 01:43:01;;;;;;;38.83;34.60;;;14.00;99.90;;;;;;4995378;28;20034;-80
2023/09/27 01:45:29;;;;;;;39.33;33.67;;;14.00;99.90;;;;;;5010577;28;20133;-80
2023/09/27 01:47:55;;;;;;;42.22;35.58;;;14.00;99.90;;;;;;4992764;28;20280;-80
2023/09/27 01:50:24;;;;;;;42.80;34.22;;;14.00;99.90;;;;;;5011830;28;20037;-80
2023/09/27 01:52:51;;;;;;;39.05;34.20;;;13.90;99.90;;;;;;5009870;28;20045;-81
2023/09/27 01:55:17;;;;;;;39.67;33.58;;;14.00;99.90;;;;;;4989067;28;20037;-81
2023/09/27 01:57:45;;;;;;;39.53;32.60;;;14.10;99.90;;;;;;5003490;28;20040;-80
2023/09/27 02:00:14;;;;;;;38.95;33.28;;;14.10;99.90;;;;;;5000649;28;20045;-81
2023/09/27 02:02:44;;;;;;;38.13;33.78;;;14.10;99.90;;;;;;5004380;28;20511;-81
2023/09/27 02:05:10;;;;;;;44.00;36.85;;;14.00;99.90;;;;;;4999909;28;20065;-80
2023/09/27 02:07:40;;;;;;;36.13;31.40;;;14.00;99.90;;;;;;5005679;28;20138;-80
2023/09/27 02:10:06;;;;;;;38.53;32.60;;;14.00;99.90;;;;;;5005449;28;20112;-80
2023/09/27 02:12:32;;;;;;;40.15;34.35;;;14.00;99.90;;;;;;5005429;28;20034;-81
2023/09/27 02:14:58;;;;;;;42.65;35.83;;;14.00;99.90;;;;;;4989115;28;20057;-80
2023/09/27 02:17:24;;;;;;;41.08;35.13;;;13.90;99.90;;;;;;4993708;28;20041;-81
2023/09/27 02:19:49;;;;;;;40.78;35.97;;;13.90;99.90;;;;;;5005888;28;20048;-80
2023/09/27 02:22:15;;;;;;;41.10;34.63;;;13.90;99.90;;;;;;4989569;28;20116;-80
2023/09/27 02:24:41;;;;;;;43.75;35.63;;;13.90;99.90;;;;;;4989834;28;21278;-80
2023/09/27 02:27:10;;;;;;;41.45;36.92;;;13.90;99.90;;;;;;5017638;28;20037;-80
2023/09/27 02:29:37;;;;;;;42.53;35.45;;;13.90;99.90;;;;;;4978489;28;20186;-80
2023/09/27 02:32:04;;;;;;;37.97;33.83;;;14.00;99.90;;;;;;5009505;28;20814;-80
2023/09/27 02:34:30;;;;;;;40.60;34.42;;;14.00;99.90;;;;;;4992530;28;20479;-80
2023/09/27 02:36:55;;;;;;;43.63;35.95;;;14.00;99.90;;;;;;4992457;28;20175;-80
2023/09/27 02:39:21;;;;;;;40.95;35.35;;;14.00;99.90;;;;;;5008366;28;20479;-81
2023/09/27 02:41:47;;;;;;;39.17;33.83;;;14.00;99.90;;;;;;4977068;28;20041;-80
2023/09/27 02:44:13;;;;;;;38.15;33.95;;;14.00;99.90;;;;;;4987961;28;20509;-80
2023/09/27 02:46:40;;;;;;;41.58;35.40;;;13.90;99.90;;;;;;4990226;28;20045;-81
2023/09/27 02:49:05;;;;;;;38.05;33.90;;;14.00;99.90;;;;;;4991972;28;20102;-80
2023/09/27 02:51:34;;;;;;;36.38;32.45;;;13.90;99.90;;;;;;4999422;28;20136;-80
2023/09/27 02:54:00;;;;;;;39.75;35.28;;;13.90;99.90;;;;;;5023438;28;20049;-80
2023/09/27 02:56:26;;;;;;;37.95;32.90;;;13.90;99.90;;;;;;5009458;28;20128;-80
2023/09/27 02:58:51;;;;;;;40.83;34.97;;;13.80;99.90;;;;;;4990213;28;20129;-80
2023/09/27 03:01:17;;;;;;;39.47;33.90;;;13.80;99.90;;;;;;5003747;28;20049;-80
2023/09/27 03:03:43;;;;;;;45.38;38.95;;;13.80;99.90;;;;;;5004054;28;20132;-80
2023/09/27 03:06:14;;;;;;;46.35;38.88;;;13.70;99.90;;;;;;4992731;28;20391;-80
2023/09/27 03:08:42;;;;;;;38.83;34.30;;;13.70;99.90;;;;;;4989718;28;20056;-80
2023/09/27 03:11:12;;;;;;;46.15;38.33;;;13.70;99.90;;;;;;5001696;28;20136;-80
2023/09/27 03:13:39;;;;;;;42.90;37.13;;;13.70;99.90;;;;;;5005996;28;20452;-81
2023/09/27 03:16:05;;;;;;;41.10;36.05;;;13.60;99.90;;;;;;4990001;28;20042;-80
2023/09/27 03:18:32;;;;;;;50.30;41.22;;;13.60;99.90;;;;;;4990913;28;20103;-80
2023/09/27 03:20:59;;;;;;;48.47;40.47;;;13.60;99.90;;;;;;5006489;28;20064;-80
2023/09/27 03:23:28;;;;;;;44.10;38.05;;;13.70;99.90;;;;;;5005496;28;20047;-80
2023/09/27 03:25:56;;;;;;;44.00;36.97;;;13.70;99.90;;;;;;5006438;28;20055;-80
2023/09/27 03:28:22;;;;;;;40.55;35.45;;;13.70;99.90;;;;;;5008663;28;20059;-80
2023/09/27 03:30:48;;;;;;;39.40;33.63;;;13.70;99.90;;;;;;5023072;28;20033;-80
2023/09/27 03:33:14;;;;;;;37.28;33.10;;;13.70;99.90;;;;;;5023925;28;20413;-80
2023/09/27 03:35:41;;;;;;;41.65;35.83;;;13.60;99.90;;;;;;5006930;28;20084;-81
2023/09/27 03:38:06;;;;;;;37.70;33.65;;;13.60;99.90;;;;;;5007514;28;20041;-80
2023/09/27 03:40:32;;;;;;;37.38;33.38;;;13.60;99.90;;;;;;5023010;28;20034;-81
2023/09/27 03:42:58;;;;;;;42.25;35.95;;;13.50;99.90;;;;;;4986340;28;20045;-80
2023/09/27 03:45:25;;;;;;;45.25;37.28;;;13.50;99.90;;;;;;4991885;28;20044;-80
2023/09/27 03:47:51;;;;;;;47.08;40.03;;;13.50;99.90;;;;;;4992302;28;20091;-80
2023/09/27 03:50:17;;;;;;;46.45;39.28;;;13.40;99.90;;;;;;4992308;28;20034;-81
2023/09/27 03:52:43;;;;;;;43.30;37.08;;;13.50;99.90;;;;;;5001219;28;20096;-80
2023/09/27 03:55:10;;;;;;;49.28;39.53;;;13.50;99.90;;;;;;5006819;28;20100;-80
2023/09/27 03:57:36;;;;;;;42.03;37.33;;;13.40;99.90;;;;;;5012683;28;20084;-80
2023/09/27 04:00:24;;;;;;;45.72;37.28;;;13.50;99.90;;;;;;4997788;28;20073;-80
2023/09/27 04:02:49;;;;;;;43.55;38.22;;;13.40;99.90;;;;;;5022796;28;20436;-81
2023/09/27 04:05:22;;;;;;;48.65;40.25;;;13.40;99.90;;;;;;4997872;28;20124;-81
2023/09/27 04:07:48;;;;;;;42.85;36.78;;;13.40;99.90;;;;;;4998089;28;20064;-81
2023/09/27 04:10:17;;;;;;;50.10;41.45;;;13.40;99.90;;;;;;5013038;28;20030;-80
2023/09/27 04:12:43;;;;;;;48.83;41.50;;;13.40;99.90;;;;;;4998504;28;20111;-80
2023/09/27 04:15:10;;;;;;;48.67;39.78;;;13.40;99.90;;;;;;5012732;28;20405;-81
2023/09/27 04:17:37;;;;;;;42.42;37.78;;;13.40;99.90;;;;;;4997315;28;20076;-81
2023/09/27 04:20:18;;;;;;;50.42;41.95;;;13.50;99.90;;;;;;5007765;28;20037;-80
2023/09/27 04:22:47;;;;;;;47.53;41.33;;;13.40;99.90;;;;;;4990645;28;20045;-80
2023/09/27 04:25:14;;;;;;;49.67;41.60;;;13.40;99.90;;;;;;5016167;28;20113;-81
2023/09/27 04:27:43;;;;;;;48.47;40.42;;;13.40;99.90;;;;;;5012566;28;20099;-81
2023/09/27 04:30:12;;;;;;;44.35;39.53;;;13.30;99.90;;;;;;5030019;28;20034;-80
2023/09/27 04:32:45;;;;;;;52.95;44.65;;;13.30;99.90;;;;;;4981841;28;20042;-80
2023/09/27 04:35:13;;;;;;;42.97;37.95;;;13.40;99.90;;;;;;5013637;28;20041;-80
2023/09/27 04:37:39;;;;;;;44.65;38.00;;;13.30;99.90;;;;;;5010482;28;20376;-80
2023/09/27 04:40:11;;;;;;;49.30;42.30;;;13.30;99.90;;;;;;4997474;28;20187;-80
2023/09/27 04:42:40;;;;;;;46.65;41.20;;;13.30;99.90;;;;;;4997544;28;20049;-81
2023/09/27 04:45:07;;;;;;;51.78;43.25;;;13.30;99.90;;;;;;5008273;28;20044;-81
2023/09/27 04:47:33;;;;;;;48.95;41.85;;;13.30;99.90;;;;;;5029278;28;20041;-80
2023/09/27 04:49:59;;;;;;;54.17;45.90;;;13.30;99.90;;;;;;4997893;28;20102;-80
2023/09/27 04:52:24;;;;;;;52.22;42.92;;;13.30;99.90;;;;;;4993828;28;20069;-80
2023/09/27 04:54:57;;;;;;;47.58;40.40;;;13.30;99.90;;;;;;5010229;28;20369;-81
2023/09/27 04:57:24;;;;;;;45.45;40.13;;;13.40;99.90;;;;;;5013251;28;20029;-81
2023/09/27 04:59:52;;;;;;;44.40;37.83;;;13.30;99.90;;;;;;4997097;28;20063;-81
2023/09/27 05:02:18;;;;;;;45.10;39.22;;;13.30;99.90;;;;;;5012074;28;20045;-81
2023/09/27 05:04:45;;;;;;;52.53;42.85;;;13.30;99.90;;;;;;4987655;28;20038;-81
2023/09/27 05:07:11;;;;;;;51.30;42.95;;;13.20;99.90;;;;;;4995957;28;20428;-81
2023/09/27 05:09:36;;;;;;;50.90;42.95;;;13.20;99.90;;;;;;5028884;28;20040;-81
2023/09/27 05:12:03;;;;;;;53.55;44.60;;;13.20;99.90;;;;;;5029320;28;20112;-81
2023/09/27 05:14:29;;;;;;;55.38;47.00;;;13.20;99.90;;;;;;4996723;28;20042;-80
2023/09/27 05:16:54;;;;;;;53.00;43.45;;;13.20;99.90;;;;;;4980544;28;20037;-80
2023/09/27 05:19:20;;;;;;;49.95;42.30;;;13.20;99.90;;;;;;4980439;28;20045;-81
2023/09/27 05:21:46;;;;;;;43.88;38.85;;;13.10;99.90;;;;;;4993948;28;20462;-81
2023/09/27 05:24:11;;;;;;;48.25;40.90;;;13.10;99.90;;;;;;5009051;28;20045;-80
2023/09/27 05:26:37;;;;;;;47.35;40.53;;;13.10;99.90;;;;;;4996655;28;20034;-81
2023/09/27 05:29:03;;;;;;;48.25;41.92;;;13.10;99.90;;;;;;5007496;28;20053;-81
2023/09/27 05:31:29;;;;;;;47.17;39.97;;;13.10;99.90;;;;;;4992939;28;20037;-81
2023/09/27 05:33:54;;;;;;;48.33;40.63;;;13.10;99.90;;;;;;5013406;28;20404;-81
2023/09/27 05:36:20;;;;;;;41.83;37.30;;;13.10;99.90;;;;;;4975671;28;20033;-81
2023/09/27 05:38:46;;;;;;;51.45;42.85;;;13.10;99.90;;;;;;5014529;28;20120;-81
2023/09/27 05:41:12;;;;;;;46.72;39.90;;;13.20;99.90;;;;;;4984456;28;20029;-81
2023/09/27 05:43:37;;;;;;;42.08;37.50;;;13.20;99.90;;;;;;4984226;28;20033;-81
2023/09/27 05:46:03;;;;;;;44.97;39.25;;;13.30;99.90;;;;;;5000656;28;20041;-81
2023/09/27 05:48:30;;;;;;;44.05;38.58;;;13.30;99.90;;;;;;5016179;28;20073;-81
2023/09/27 05:50:56;;;;;;;51.65;42.65;;;13.40;99.90;;;;;;4986005;28;20038;-81
2023/09/27 05:53:22;;;;;;;53.03;43.17;;;13.50;99.90;;;;;;5000242;28;20045;-81
2023/09/27 05:55:48;;;;;;;48.25;42.50;;;13.50;99.90;;;;;;5032965;28;20046;-81
2023/09/27 05:58:14;;;;;;;50.88;42.80;;;13.50;99.90;;;;;;4999434;28;20045;-81
2023/09/27 06:00:46;;;;;;;50.30;42.05;;;13.60;99.90;;;;;;5002064;28;20120;-81
2023/09/27 06:03:12;;;;;;;;;;;13.60;99.90;;;;;;5001980;28;20041;-81
2023/09/27 06:05:37;;;;;;;47.67;39.60;;;13.70;99.90;;;;;;5032150;28;19928;-81
2023/09/27 06:08:03;;;;;;;48.47;41.10;;;13.70;99.90;;;;;;5009080;28;20099;-81
2023/09/27 06:10:29;;;;;;;49.85;42.33;;;13.70;99.90;;;;;;4989097;28;20540;-80
2023/09/27 06:12:55;;;;;;;48.67;40.63;;;13.80;99.90;;;;;;4982969;28;20048;-81
2023/09/27 06:15:21;;;;;;;50.05;42.35;;;13.80;99.90;;;;;;4998763;28;20044;-81
2023/09/27 06:17:48;;;;;;;54.80;42.78;;;13.80;99.90;;;;;;4998673;28;20037;-81
2023/09/27 06:20:22;;;;;;;52.55;42.67;;;13.80;99.90;;;;;;4995326;28;20037;-81
2023/09/27 06:22:49;;;;;;;52.85;44.42;;;13.80;99.90;;;;;;5007325;28;20057;-81
2023/09/27 06:25:18;;;;;;;57.83;44.45;;;13.80;99.90;;;;;;4996864;28;20116;-81
2023/09/27 06:27:44;;;;;;;51.58;43.15;;;13.80;99.90;;;;;;5016747;28;20045;-81
2023/09/27 06:30:11;;;;;;;53.30;45.70;;;13.80;99.90;;;;;;4999655;28;20049;-81
2023/09/27 06:32:37;;;;;;;47.15;41.22;;;13.80;99.90;;;;;;5013165;28;20033;-81
2023/09/27 06:35:12;;;;;;;49.47;39.75;;;13.80;99.90;;;;;;4999540;28;20378;-81
2023/09/27 06:37:43;;;;;;;45.03;39.17;;;13.90;99.90;;;;;;5014352;28;20065;-81
2023/09/27 06:40:16;;;;;;;46.30;39.60;;;13.90;99.90;;;;;;5016081;28;20112;-81
2023/09/27 06:42:46;;;;;;;50.17;41.83;;;13.90;99.90;;;;;;5016396;28;20865;-81
2023/09/27 06:45:13;;;;;;;48.40;40.78;;;13.90;99.90;;;;;;4995052;28;20492;-81
2023/09/27 06:47:44;;;;;;;48.83;39.90;;;13.90;99.90;;;;;;4998986;28;20037;-81
2023/09/27 06:50:11;;;;;;;48.38;40.90;;;13.90;99.90;;;;;;4985160;28;20033;-81
2023/09/27 06:52:39;;;;;;;46.97;38.65;;;13.90;99.90;;;;;;5009503;28;20413;-81
2023/09/27 06:55:16;;;;;;;46.40;38.03;;;14.00;99.90;;;;;;5015479;28;20033;-81
2023/09/27 06:57:44;;;;;;;45.80;39.17;;;14.10;99.90;;;;;;5018379;28;20038;-81
2023/09/27 07:00:18;;;;;;;47.22;39.42;;;14.10;99.90;;;;;;5015529;28;20069;-81
2023/09/27 07:02:46;;;;;;;49.25;40.88;;;14.10;99.90;;;;;;4982705;28;20050;-81
2023/09/27 07:05:11;;;;;;;48.00;40.63;;;14.20;99.90;;;;;;5013047;28;20136;-81
2023/09/27 07:07:38;;;;;;;48.85;40.03;;;14.30;99.90;;;;;;5014693;28;20136;-81
2023/09/27 07:10:04;;;;;;;44.47;38.58;;;14.30;99.90;;;;;;5009312;28;20519;-81
2023/09/27 07:12:30;;;;;;;47.58;39.13;;;14.40;99.90;;;;;;4996448;28;20045;-80
2023/09/27 07:14:57;;;;;;;45.83;39.40;;;14.50;99.90;;;;;;5022216;28;20609;-81
2023/09/27 07:17:25;;;;;;;42.30;37.70;;;14.60;99.90;;;;;;5025912;28;20041;-81
2023/09/27 07:19:51;;;;;;;46.80;38.47;;;14.60;99.90;;;;;;5032895;28;20045;-80
2023/09/27 07:22:17;;;;;;;48.53;40.83;;;14.70;99.90;;;;;;5029742;28;20048;-80
2023/09/27 07:24:43;;;;;;;46.03;39.13;;;14.80;99.90;;;;;;5027272;28;20406;-80
2023/09/27 07:27:09;;;;;;;46.63;40.00;;;14.90;99.90;;;;;;5012515;28;20037;-81
2023/09/27 07:29:35;;;;;;;46.95;39.83;;;14.90;99.90;;;;;;5027820;28;20427;-80
2023/09/27 07:32:01;;;;;;;45.90;39.88;;;15.00;99.90;;;;;;5028055;28;20046;-80
2023/09/27 07:34:27;;;;;;;47.92;39.20;;;15.00;99.90;;;;;;5031653;28;20037;-81
2023/09/27 07:36:54;;;;;;;46.55;39.15;;;15.00;99.90;;;;;;4998911;28;20478;-81
2023/09/27 07:39:20;;;;;;;47.67;40.28;;;15.00;99.90;;;;;;4980305;28;20049;-80
2023/09/27 07:41:46;;;;;;;47.70;39.45;;;15.10;99.90;;;;;;5029231;28;20175;-81
2023/09/27 07:44:12;;;;;;;49.75;40.72;;;15.10;99.90;;;;;;4998443;28;20046;-81
2023/09/27 07:46:38;;;;;;;48.65;40.38;;;15.10;99.90;;;;;;5030330;28;20034;-81
2023/09/27 07:49:04;;;;;;;49.38;42.40;;;15.10;99.90;;;;;;4994459;28;20095;-81
2023/09/27 07:51:30;;;;;;;48.15;40.33;;;15.20;99.90;;;;;;5003900;28;20041;-80
2023/09/27 07:53:56;;;;;;;52.10;43.08;;;15.10;99.90;;;;;;5010609;28;20542;-81
2023/09/27 07:56:25;;;;;;;51.92;42.83;;;15.10;99.90;;;;;;5024406;28;20041;-81
2023/09/27 07:58:52;;;;;;;51.50;43.83;;;15.10;99.90;;;;;;5024837;28;20076;-80
2023/09/27 08:01:20;;;;;;;50.17;41.53;;;15.20;99.90;;;;;;5031294;28;20045;-80
2023/09/27 08:04:06;;;;;;;48.78;42.92;;;15.20;99.90;;;;;;5030385;28;20047;-80
2023/09/27 08:06:36;;;;;;;49.58;41.63;;;15.30;99.90;;;;;;5003275;28;20037;-81
2023/09/27 08:09:02;;;;;;;49.53;41.40;;;15.30;99.90;;;;;;5007735;28;20041;-80
2023/09/27 08:11:28;;;;;;;51.08;42.92;;;15.30;99.90;;;;;;4997528;28;20098;-80
2023/09/27 08:13:54;;;;;;;50.05;41.00;;;15.30;99.90;;;;;;5030131;28;20044;-81
2023/09/27 08:16:20;;;;;;;49.50;42.13;;;15.40;99.90;;;;;;4991996;28;20037;-80
2023/09/27 08:18:52;;;;;;;50.58;42.35;;;15.40;99.90;;;;;;5097526;27;20436;-69
2023/09/27 08:21:18;;;;;;;50.42;40.97;;;15.40;99.90;;;;;;5076012;28;20052;-69
2023/09/27 08:23:44;;;;;;;49.17;43.58;;;15.50;99.90;;;;;;5077386;28;20048;-69
2023/09/27 08:26:13;;;;;;;49.08;41.38;;;15.50;99.90;;;;;;5078801;28;20070;-69
2023/09/27 08:28:39;;;;;;;48.47;41.35;;;15.60;99.90;;;;;;5094423;28;20063;-70
2023/09/27 08:31:06;;;;;;;50.90;43.08;;;15.60;99.90;;;;;;5078408;28;20404;-71
2023/09/27 08:33:31;;;;;;;51.90;43.42;;;15.70;99.90;;;;;;5093006;28;20040;-69
2023/09/27 08:35:57;;;;;;;47.50;41.83;;;15.80;99.90;;;;;;5095802;28;20079;-70
2023/09/27 08:38:23;;;;;;;50.08;42.30;;;15.90;99.90;;;;;;5094858;28;20071;-70
2023/09/27 08:40:49;;;;;;;44.17;39.45;;;16.00;99.90;;;;;;5081001;28;20548;-69
2023/09/27 08:43:15;;;;;;;45.92;40.97;;;16.10;99.90;;;;;;5093120;28;20075;-69
2023/09/27 08:45:42;;;;;;;46.35;40.30;;;16.30;99.90;;;;;;5095381;28;20049;-69
2023/09/27 08:48:13;;;;;;;44.97;39.28;;;16.30;99.90;;;;;;5061697;28;20045;-69
2023/09/27 08:50:39;;;;;;;45.72;40.38;;;16.50;99.90;;;;;;5093235;28;20124;-70
2023/09/27 08:53:05;;;;;;;45.97;40.45;;;16.60;99.90;;;;;;5096778;28;20051;-69
2023/09/27 08:55:32;;;;;;;43.08;38.42;;;16.70;99.90;;;;;;5092267;28;20044;-70
2023/09/27 08:57:59;;;;;;;46.75;40.72;;;16.80;99.90;;;;;;5077110;28;20110;-70
2023/09/27 09:00:28;;;;;;;43.95;37.05;;;17.00;99.90;;;;;;5073417;28;20123;-69
2023/09/27 09:02:58;;;;;;;48.00;39.40;;;17.10;99.90;;;;;;5093054;28;20040;-69
2023/09/27 09:05:30;;;;;;;44.75;38.53;;;17.20;99.90;;;;;;5071410;28;20048;-71
2023/09/27 09:07:57;;;;;;;42.28;37.42;;;17.40;99.90;;;;;;5093285;28;20040;-72
2023/09/27 09:10:23;;;;;;;44.22;37.00;;;17.50;99.90;;;;;;5077456;28;20104;-70
2023/09/27 09:12:49;;;;;;;41.95;35.95;;;17.50;99.90;;;;;;5095648;28;20083;-71
2023/09/27 09:15:28;;;;;;;42.50;37.03;;;17.60;99.90;;;;;;5077210;28;20052;-71
2023/09/27 09:17:57;;;;;;;44.38;37.53;;;17.60;99.90;;;;;;5093009;28;20123;-71
2023/09/27 09:20:32;;;;;;;42.17;34.53;;;17.70;99.90;;;;;;5090400;28;20185;-70
2023/09/27 09:23:02;;;;;;;42.72;34.25;;;17.80;99.90;;;;;;5089926;28;20036;-71
2023/09/27 09:25:28;;;;;;;37.83;33.75;;;17.90;99.90;;;;;;5093810;28;20052;-71
2023/09/27 09:28:04;;;;;;;42.08;32.95;;;18.00;99.90;;;;;;5055803;28;20033;-70
2023/09/27 09:30:38;;;;;;;38.08;32.78;;;18.10;99.90;;;;;;5043589;28;20055;-71
2023/09/27 09:33:16;;;;;;;37.38;33.00;;;18.20;99.90;;;;;;5078438;28;20759;-71
2023/09/27 09:35:41;;;;;;;32.97;28.90;;;18.20;99.90;;;;;;5080048;28;20144;-71
2023/09/27 09:38:07;;;;;;;35.30;28.73;;;18.20;99.90;;;;;;5062062;28;20068;-71
2023/09/27 09:40:34;;;;;;;33.80;28.65;;;18.20;99.90;;;;;;5082686;28;20493;-71
2023/09/27 09:43:00;;;;;;;36.35;28.70;;;18.20;99.90;;;;;;5082127;28;20052;-71
2023/09/27 09:45:26;;;;;;;32.78;27.98;;;18.20;99.90;;;;;;5061259;28;20064;-71
2023/09/27 09:47:52;;;;;;;33.17;28.63;;;18.20;99.90;;;;;;5079635;28;20040;-71
2023/09/27 09:50:18;;;;;;;35.05;30.08;;;18.30;99.90;;;;;;5078378;28;20048;-71
2023/09/27 09:52:57;;;;;;;39.78;29.13;;;18.30;99.90;;;;;;5080250;28;20040;-71
2023/09/27 09:55:34;;;;;;;36.00;30.30;;;18.30;99.90;;;;;;5069077;28;20049;-73
2023/09/27 09:58:12;;;;;;;31.92;27.73;;;18.40;99.90;;;;;;5051445;28;20040;-72
2023/09/27 10:00:42;;;;;;;31.88;27.20;;;18.40;99.90;;;;;;5052316;28;20053;-71
2023/09/27 10:03:14;;;;;;;32.90;28.17;;;18.50;99.90;;;;;;5067477;28;20048;-71
2023/09/27 10:05:42;;;;;;;33.13;29.20;;;18.50;99.90;;;;;;5067095;28;20045;-71
2023/09/27 10:08:08;;;;;;;36.28;30.90;;;18.50;99.90;;;;;;5069337;28;20055;-72
2023/09/27 10:10:35;;;;;;;36.00;31.15;;;18.60;99.90;;;;;;5069002;28;20612;-71
2023/09/27 10:13:05;;;;;;;37.15;30.08;;;18.60;99.90;;;;;;5081469;28;20101;-72
2023/09/27 10:15:35;;;;;;;34.10;29.58;;;18.80;99.90;;;;;;5048068;28;20044;-73
2023/09/27 10:18:22;;;;;;;33.35;29.75;;;18.90;99.90;;;;;;5050182;28;20351;-73
2023/09/27 10:21:05;;;;;;;33.90;29.25;;;19.10;99.90;;;;;;5062804;28;20404;-73
2023/09/27 10:23:46;;;;;;;31.58;27.80;;;19.20;99.90;;;;;;5079474;28;20402;-73
2023/09/27 10:26:27;;;;;;;33.67;26.25;;;19.20;99.90;;;;;;5066135;28;20489;-72
2023/09/27 10:29:03;;;;;;;30.60;27.05;;;19.30;99.90;;;;;;5066276;28;20044;-73
2023/09/27 10:31:34;;;;;;;30.95;26.75;;;19.20;99.90;;;;;;5092642;28;20121;-73
2023/09/27 10:33:59;;;;;;;31.80;27.85;;;19.20;99.90;;;;;;5032818;28;20052;-72
2023/09/27 10:36:26;;;;;;;31.98;26.73;;;19.20;99.90;;;;;;5066664;28;20095;-72
2023/09/27 10:38:52;;;;;;;30.85;26.42;;;19.30;99.90;;;;;;5091449;28;20116;-73
2023/09/27 10:41:33;;;;;;;29.00;25.80;;;19.50;99.90;;;;;;5065146;28;20072;-72
2023/09/27 10:44:03;;;;;;;28.52;24.45;;;19.70;99.90;;;;;;5066426;28;20442;-72
2023/09/27 10:46:45;;;;;;;28.05;23.50;;;19.80;99.90;;;;;;5067495;28;20089;-72
2023/09/27 10:49:11;;;;;;;26.80;23.55;;;19.90;99.90;;;;;;5064269;28;20063;-72
2023/09/27 10:51:37;;;;;;;28.58;23.55;;;20.00;99.90;;;;;;5034588;28;20057;-72
2023/09/27 10:54:10;;;;;;;25.30;21.95;;;20.00;99.90;;;;;;5048037;28;20056;-72
2023/09/27 10:56:36;;;;;;;27.35;22.10;;;20.10;99.90;;;;;;5066267;28;20044;-72
2023/09/27 10:59:03;;;;;;;24.98;22.33;;;20.10;99.90;;;;;;5066009;28;20040;-72
2023/09/27 11:01:29;;;;;;;27.90;21.83;;;20.20;99.90;;;;;;5067487;28;20070;-73
2023/09/27 11:04:02;;;;;;;26.52;23.23;;;20.30;99.90;;;;;;5047792;28;20032;-72
2023/09/27 11:06:30;;;;;;;25.42;22.15;;;20.30;99.90;;;;;;5077007;28;20047;-72
2023/09/27 11:09:06;;;;;;;29.25;23.50;;;20.40;99.90;;;;;;5066078;28;20086;-71
2023/09/27 11:11:33;;;;;;;26.58;22.67;;;20.50;99.90;;;;;;5066264;28;20052;-73
2023/09/27 11:13:59;;;;;;;25.15;21.95;;;20.70;99.90;;;;;;5051095;28;20045;-72
2023/09/27 11:16:25;;;;;;;27.35;22.15;;;20.80;99.90;;;;;;5064129;28;20055;-70
2023/09/27 11:18:56;;;;;;;22.88;20.48;;;20.80;99.90;;;;;;5064175;28;20135;-73
2023/09/27 11:21:28;;;;;;;25.50;20.67;;;20.90;99.90;;;;;;5050013;28;20061;-77
2023/09/27 11:24:06;;;;;;;23.42;20.50;;;21.00;99.90;;;;;;5048067;28;20288;-74
2023/09/27 11:26:33;;;;;;;24.63;21.23;;;21.00;99.90;;;;;;5048113;28;20135;-73
2023/09/27 11:28:59;;;;;;;23.02;19.65;;;21.00;99.90;;;;;;5063325;28;20053;-73
2023/09/27 11:31:27;;;;;;;23.10;20.58;;;21.00;99.90;;;;;;5066803;28;20063;-72
2023/09/27 11:34:09;;;;;;;23.63;20.17;;;20.90;99.90;;;;;;5049066;28;20156;-71
2023/09/27 11:36:40;;;;;;;23.65;20.52;;;20.90;99.90;;;;;;5035907;28;20046;-72
2023/09/27 11:39:06;;;;;;;24.33;19.67;;;20.90;99.90;;;;;;5070484;28;20090;-72
2023/09/27 11:41:31;;;;;;;21.83;19.02;;;20.90;99.90;;;;;;5071032;28;20067;-72
2023/09/27 11:43:58;;;;;;;23.30;20.02;;;20.90;99.90;;;;;;5072656;28;20390;-72
2023/09/27 11:46:28;;;;;;;20.80;18.33;;;21.00;99.90;;;;;;5068956;28;20051;-72
2023/09/27 11:48:54;;;;;;;20.75;18.10;;;21.10;99.90;;;;;;5038996;28;20474;-73
2023/09/27 11:51:19;;;;;;;22.08;17.90;;;21.20;99.90;;;;;;5054258;28;20048;-73
2023/09/27 11:53:45;;;;;;;23.63;17.65;;;21.10;99.90;;;;;;5053994;28;20036;-73
2023/09/27 11:56:12;;;;;;;23.00;17.77;;;21.00;99.90;;;;;;5075675;28;20040;-72
2023/09/27 11:58:37;;;;;;;20.80;18.60;;;20.90;99.90;;;;;;5063793;28;20510;-72
2023/09/27 12:01:05;;;;;;;20.73;18.10;;;20.90;99.90;;;;;;5031000;28;20103;-72
2023/09/27 12:03:31;;;;;;;19.65;17.65;;;20.90;99.90;;;;;;5080356;28;20525;-72
2023/09/27 12:05:57;;;;;;;20.25;17.48;;;20.80;99.90;;;;;;5048777;28;20427;-73
2023/09/27 12:08:23;;;;;;;19.83;17.00;;;20.80;99.90;;;;;;5081018;28;20112;-72
2023/09/27 12:10:48;;;;;;;20.15;17.20;;;20.70;99.90;;;;;;5078611;28;20068;-72
2023/09/27 12:13:14;;;;;;;17.65;15.80;;;20.70;99.90;;;;;;5065692;28;20052;-72
2023/09/27 12:15:41;;;;;;;17.33;14.80;;;20.60;99.90;;;;;;5079471;28;20139;-72
2023/09/27 12:18:06;;;;;;;16.58;14.80;;;20.60;99.90;;;;;;5084128;28;20059;-72
2023/09/27 12:20:33;;;;;;;18.75;14.30;;;20.70;99.90;;;;;;5046707;28;20052;-72
2023/09/27 12:22:58;;;;;;;17.60;15.15;;;20.70;99.90;;;;;;5048305;28;20052;-72
2023/09/27 12:25:25;;;;;;;17.05;14.90;;;20.80;99.90;;;;;;5083022;28;20649;-72
2023/09/27 12:27:51;;;;;;;17.92;15.18;;;20.80;99.90;;;;;;5080586;28;20410;-72
2023/09/27 12:30:17;;;;;;;17.67;14.32;;;20.80;99.90;;;;;;5032754;28;20048;-72